CheckWX is a tool to help pilots better visualize weather data.  It is not intended as a substitute for an official pre-flight weather briefing.

19:01:07 UTC

KLFT METAR
Lafayette Regional / Paul Fournet Field Airport
Lafayette, Louisiana, USA
Current

1 hour ago

KLFT 021753Z 24008KT 10SM BKN029 33/22 A3000 RMK AO2 SLP159 T03280217 10333 20261 58002
Observed
Jul-2 @ 17:53 UTC
Wind
  • 240° at 8 KTS
Visibility
10 SM
Flight Rules
MVFR
Cloud Levels
  • Broken at 2,900' AGL
Temperature
33°C / 91°F
Dewpoint
22°C / 72°F
Humidity
52%
Altimeter
30" Hg
Pressure
1015.92 hPa
Previous

2 hours ago

KLFT 021653Z 27005KT 9SM BKN029 32/23 A3002 RMK AO2 SLP164 T03170228
Observed
Jul-2 @ 16:53 UTC
Wind
  • 270° at 5 KTS
Visibility
9 SM
Flight Rules
MVFR
Cloud Levels
  • Broken at 2,900' AGL
Temperature
32°C / 90°F
Dewpoint
23°C / 73°F
Humidity
59%
Altimeter
30.02" Hg
Pressure
1016.62 hPa
Previous

3 hours ago

KLFT 021553Z 26006KT 9SM BKN026 31/24 A3002 RMK AO2 SLP165 T03110239
Observed
Jul-2 @ 15:53 UTC
Wind
  • 260° at 6 KTS
Visibility
9 SM
Flight Rules
MVFR
Cloud Levels
  • Broken at 2,600' AGL
Temperature
31°C / 88°F
Dewpoint
24°C / 75°F
Humidity
66%
Altimeter
30.02" Hg
Pressure
1016.62 hPa